METAR Data
IDs: Format: Raw Decoded Include TAF

Data at: 1337 UTC 14 Dec 2019

PAJN 141253Z 08006KT 10SM SCT050 OVC060 03/01 A3003 RMK AO2 SLP169 T00280006
PAJN 141153Z 06008KT 10SM FEW011 BKN055 OVC100 03/01 A3002 RMK AO2 SLP167 OCNL BINOVC 70001 T00280006 10033 20022 51004
PAJN 141053Z 07007KT 10SM FEW022 BKN055 BKN100 03/01 A3002 RMK AO2 SLP167 OCNL BINOVC T00280006
PAJN 140953Z 10007KT 10SM SCT042 OVC080 03/01 A3002 RMK AO2 SLP166 T00280011
PAJN 140853Z 09009KT 10SM FEW012 BKN055 BKN100 03/01 A3001 RMK AO2 SLP163 HCVIS T00280006 400500028 51011
PAJN 140753Z 07007KT 10SM FEW011 BKN060 OVC100 03/01 A3001 RMK AO2 SLP161 THN OVC LYR T00330006
PAJN 140653Z 06005KT 10SM FEW023 BKN060 OVC095 03/01 A3000 RMK AO2 SLP157 T00330011
PAJN 140553Z 06008KT 10SM FEW021 BKN065 OVC130 03/01 A2998 RMK AO2 SLP152 THN OVC LYR T00330011 10039 20033 53009
PAJN 140453Z 09011KT 10SM FEW008 BKN070 BKN095 03/01 A2997 RMK AO2 SLP148 T00330011
PAJN 140353Z 07009KT 10SM FEW008 BKN060 OVC080 03/01 A2996 RMK AO2 SLP145 OCNL BINOVC T00330011
PAJN 140253Z 09010KT 10SM FEW008 BKN055 OVC070 03/01 A2995 RMK AO2 SLP143 OCNL BINOVC T00330011 53004
PAJN 140153Z 10011KT 10SM FEW009 BKN055 OVC090 03/01 A2995 RMK SLP142 OCNL BINOVC T00330011 VIA AUTODIAL
PAJN 140053Z 09013KT 10SM FEW010 SCT033 BKN065 03/01 A2994 RMK AO2 SLP140 T00330011
PAJN 132353Z 10013KT 10SM FEW011 SCT042 OVC060 04/02 A2994 RMK AO2 SLP139 OCNL BINOVC 60001 T00390017 10050 20033 53009
PAJN 132253Z 10008KT 10SM FEW014 SCT034 BKN060 BKN140 04/02 A2993 RMK AO2 SLP134 PRESENT WX VCSH E T00440017
PAJN 132153Z 12015KT 10SM FEW012 SCT036 BKN065 BKN130 04/02 A2992 RMK RAB07E44 SLP131 P0000 T00440017 VIA AUTODIAL
PAJN 132053Z 09011KT 10SM FEW034 SCT050 BKN070 OVC130 04/02 A2992 RMK RAE45 SLP130 P0000 60001 T00440022 50006 VIA AUTODIAL
PAJN 131953Z COR 09010KT 10SM -RA FEW010 SCT050 BKN070 OVC130 04/02 A2992 RMK RAE08B53 SLP130 P0000 T00390017 VIA AUTODIAL
PAJN 131853Z 11012KT 9SM -RA FEW011 BKN047 BKN080 OVC140 03/02 A2991 RMK AO2 RAB39 SLP129 P0001 T00330017
PAJN 131753Z 07009KT 10SM FEW022 FEW046 SCT070 BKN180 03/02 A2990 RMK AO2 SLP124 PRESENT WX VCSH E T00330017 10044 20028 53009
PAJN 131653Z 09012KT 10SM FEW010 FEW026 SCT038 SCT150 03/01 A2988
PAJN 131553Z 08011KT 10SM FEW011 FEW044 SCT050 BKN160 03/01 A2987 RMK AO2 SLP115 T00330011
PAJN 131453Z 07008KT 10SM FEW024 SCT060 BKN090 03/01 A2987 RMK SLP114 T00330011 53011 VIA AUTODIAL
PAJN 131353Z 08007KT 10SM FEW019 SCT060 BKN080 04/02 A2985 RMK AO2 SLP108 T00440017
PAJN 131253Z 04005KT 10SM FEW008 BKN060 OVC080 04/02 A2985 RMK AO2 SLP107 T00390022
PAJN 131153Z 08010KT 10SM FEW019 BKN060 OVC080 04/02 A2984 RMK AO2 SLP103 CIG LWR SE 60003 70009 T00390017 10050 20033 51027
PAJN 131053Z 08011KT 10SM FEW020 SCT045 OVC065 04/02 A2982 RMK AO2 SLP097 T00390017
PAJN 130953Z 08013KT 10SM FEW020 BKN040 OVC075 03/02 A2979 RMK SLP086 T00330017 VIA AUTODIAL
PAJN 130853Z 08011KT 10SM FEW020 BKN032 OVC040 04/02 A2975 RMK RAE23 SLP076 P0002 60003 T00390022 400560006 53034 VIA AUTODIAL
PAJN 130753Z 10008KT 8SM RA FEW021 BKN030 OVC041 04/02 A2972 RMK AO2 RAE23B40 SLP065 P0001 T00440022
PAJN 130653Z 09007KT 10SM -RA SCT034 BKN045 OVC060 04/02 A2968 RMK AO2 RAB0555E13B52 SLP051 P0000 T00440017
PAJN 130553Z 08009KT 10SM FEW027 OVC055 04/02 A2966 RMK AO2 SLP042 OCNL BINOVC 60006 T00440017 10056 20039 51020
PAJN 130453Z 07007KT 10SM FEW026 BKN031 BKN055 04/02 A2964 RMK AO2 SLP038 T00440017
PAJN 130353Z 10010KT 10SM BKN032 BKN040 OVC050 04/02 A2962 RMK AO2 RAE02 SLP030 P0000 T00390017
PAJN 130253Z 09010KT 10SM -RA FEW027 BKN038 OVC050 04/02 A2960 RMK AO2 SLP022 P0003 60006 T00390017 52030
PAJN 130153Z 12013KT 10SM -RA FEW026 BKN034 OVC045 04/01 A2957 RMK AO2 SLP013 P0003 T00440011